Blakesburg, Iowa
Current Conditions -  °F | °C
As of 8:53 PM on Saturday 22 Nov 2014 (Local Time) from KOTM Reporting Station
Broken Clouds Broken Clouds  
Wind Chill: 53°   Ceiling: 5000
Heat Index: 53°   Visibility: 10mi
Dew Point: 48°   Wind: 12mph
Humidity: 83%   Direction: 170°S
Pressure: 29.72"   Gusts: NA
Location:  40.96°N, 92.63°W
Report Text: KOTM 230253Z AUTO 17010KT 10SM BKN050 12/09 A2972 RMK AO2 SLP067 T01170089 57012
Loading
Personal Weather Stations






























Interactive Weather Map New forecast layout! Learn more

10-Day Weather Forecast

Advertisements
Track Severe Weather on mobile